Booneville, Iowa
Current Conditions -  °F | °C
As of 12:31 PM on Saturday 20 Dec 2014 (Local Time) from KDSM Reporting Station
Haze Haze  
Wind Chill: 27°   Ceiling: 500
Heat Index: 34°   Visibility: 2mi
Dew Point: 31°   Wind: 8mph
Humidity: 89%   Direction: 150°SSE
Pressure: 30.14"   Gusts: NA
Location:  41.52°N, 93.88°W
Report Text: KDSM 201831Z 15007KT 2SM BR OVC005 01/M01 A3014 RMK AO2 SFC VIS 3 T00111006
Loading
Personal Weather Stations






























Interactive Weather Map New forecast layout! Learn more

10-Day Weather Forecast

Advertisements
Track Severe Weather on mobile